Weather at Minsal Airport

Public forecast

Using degrees Celsius for public forecast. Weather courtesy of forecast.io.

Closest aviation weather report (METAR) to Minsal Airport

Closest report is El Loa Airport, 71.3 nm (132.1 km) NNW. Retrieved 2021/05/12 02:00 UTC (21 minutes ago):

SCCF 120200Z AUTO 11010KT 9999 SCT190/// 12/M14 Q1025

Closest aviation forecast (TAF) to Minsal Airport

Closest forecast is El Loa Airport, 71.3 nm (132.1 km) NNW. Retrieved 2021-05-12 00:00 UTC (2 hours ago):

TAF SCCF 112250Z 1200/1224 24007KT 9999 BKN130 TN08/1210Z TX24/1219Z BECMG 1202/1204 11015KT BECMG 1217/1219 27012KT TEMPO 1221/1224 8000 -SHRA SCT040 OVC060